PWSweather.com
Personal Weather Stations
Station Observations
KJ4AJP
Beautiful Downtown Gardner, Martin, TN 38237

Beautiful Downtown GardnerMartin, TN 38237

Lat: 36.358, Lon: -88.8994

Elevation: 384.3

Station Type: TP1080WC

http://weather.mambm.com/

High Low Average
Temperature 37.8°F3.2°C 28.0°F-2.2°C 32.5°F0.3°C
Dew Point 37.5°F3.1°C 27.8°F-2.3°C 32.3°F0.2°C
Winds 9.8 mph 15.8 kmh Calm Calm 3.0 mph WNW4.8 kmh WNW
Wind Gusts 17.4 mph28.0 kmh 1.6 mph2.6 kmh 8.0 mph12.9 kmh
Humidity 99% 99% 99%
Pressure 30.36 in1028.1 mb 29.81 in1009.5 mb -
Precipitation 0.06 in1.5 mm - -
Hour Temp Dew Point Humidity Winds Wind Gusts Pressure Precip Precip Rate Daily Precip Total
12:00 AM 37.4°F3.0°C 37.1°F2.8°C 99% 1.6 mph NE2.6 kmh NE 3.8 mph6.1 kmh 29.86 in1011.2 mb 0.01 in0.3 mm 0.00 in0.0 mm 0.64 in16.3 mm
12:15 AM 37.4°F3.0°C 37.1°F2.8°C 99% 0.7 mph NNE1.1 kmh NNE 4.5 mph7.2 kmh 29.85 in1010.8 mb 0.00 in0.0 mm 0.00 in0.0 mm 0.64 in16.3 mm
12:30 AM 37.4°F3.0°C 37.1°F2.8°C 99% 0.7 mph NNE1.1 kmh NNE 3.1 mph5.0 kmh 29.85 in1010.8 mb 0.00 in0.0 mm 0.00 in0.0 mm 0.64 in16.3 mm
12:45 AM 37.4°F3.0°C 37.1°F2.8°C 99% 1.6 mph N2.6 kmh N 3.8 mph6.1 kmh 29.86 in1011.2 mb 0.00 in0.0 mm 0.00 in0.0 mm 0.64 in16.3 mm
01:00 AM 37.6°F3.1°C 37.3°F2.9°C 99% 1.6 mph NNW2.6 kmh NNW 3.1 mph5.0 kmh 29.86 in1011.2 mb 0.00 in0.0 mm 0.00 in0.0 mm 0.01 in0.3 mm
01:15 AM 37.6°F3.1°C 37.3°F2.9°C 99% 1.6 mph N2.6 kmh N 5.4 mph8.7 kmh 29.84 in1010.5 mb 0.00 in0.0 mm 0.00 in0.0 mm 0.01 in0.3 mm
01:30 AM 37.6°F3.1°C 37.3°F2.9°C 99% 1.6 mph N2.6 kmh N 6.0 mph9.7 kmh 29.85 in1010.8 mb 0.00 in0.0 mm 0.00 in0.0 mm 0.01 in0.3 mm
01:45 AM 37.6°F3.1°C 37.3°F2.9°C 99% 1.6 mph N2.6 kmh N 4.5 mph7.2 kmh 29.85 in1010.8 mb 0.00 in0.0 mm 0.00 in0.0 mm 0.01 in0.3 mm
02:00 AM 37.6°F3.1°C 37.3°F2.9°C 99% Calm Calm 3.8 mph6.1 kmh 29.84 in1010.5 mb 0.00 in0.0 mm 0.00 in0.0 mm 0.01 in0.3 mm
02:15 AM 37.6°F3.1°C 37.3°F2.9°C 99% Calm Calm 1.6 mph2.6 kmh 29.83 in1010.2 mb 0.00 in0.0 mm 0.00 in0.0 mm 0.01 in0.3 mm
02:30 AM 37.6°F3.1°C 37.3°F2.9°C 99% Calm Calm 4.5 mph7.2 kmh 29.83 in1010.2 mb 0.00 in0.0 mm 0.00 in0.0 mm 0.01 in0.3 mm
02:45 AM 37.6°F3.1°C 37.3°F2.9°C 99% 1.6 mph N2.6 kmh N 3.8 mph6.1 kmh 29.84 in1010.5 mb 0.01 in0.3 mm 0.04 in1.0 mm 0.01 in0.3 mm
03:00 AM 37.8°F3.2°C 37.5°F3.1°C 99% 1.6 mph N2.6 kmh N 3.1 mph5.0 kmh 29.83 in1010.2 mb 0.01 in0.3 mm 0.00 in0.0 mm 0.01 in0.3 mm
03:15 AM 37.8°F3.2°C 37.5°F3.1°C 99% 1.6 mph NNW2.6 kmh NNW 3.8 mph6.1 kmh 29.83 in1010.2 mb 0.01 in0.3 mm 0.00 in0.0 mm 0.01 in0.3 mm
03:30 AM 37.6°F3.1°C 37.3°F2.9°C 99% 1.6 mph NW2.6 kmh NW 3.1 mph5.0 kmh 29.83 in1010.2 mb 0.01 in0.3 mm 0.00 in0.0 mm 0.01 in0.3 mm
03:45 AM 37.4°F3.0°C 37.1°F2.8°C 99% 3.8 mph N6.1 kmh N 6.0 mph9.7 kmh 29.83 in1010.2 mb 0.00 in0.0 mm 0.00 in0.0 mm 0.01 in0.3 mm
04:00 AM 37.2°F2.9°C 37.0°F2.8°C 99% 3.8 mph N6.1 kmh N 6.9 mph11.1 kmh 29.82 in1009.8 mb 0.00 in0.0 mm 0.00 in0.0 mm 0.01 in0.3 mm
04:15 AM 36.9°F2.7°C 36.6°F2.6°C 99% 1.6 mph N2.6 kmh N 4.5 mph7.2 kmh 29.82 in1009.8 mb 0.00 in0.0 mm 0.00 in0.0 mm 0.01 in0.3 mm
04:30 AM 36.9°F2.7°C 36.6°F2.6°C 99% 1.6 mph N2.6 kmh N 4.5 mph7.2 kmh 29.81 in1009.5 mb 0.00 in0.0 mm 0.00 in0.0 mm 0.01 in0.3 mm
04:45 AM 36.9°F2.7°C 36.6°F2.6°C 99% 1.6 mph N2.6 kmh N 3.8 mph6.1 kmh 29.81 in1009.5 mb 0.00 in0.0 mm 0.00 in0.0 mm 0.01 in0.3 mm
05:00 AM 36.7°F2.6°C 36.4°F2.4°C 99% 2.2 mph NNW3.5 kmh NNW 5.4 mph8.7 kmh 29.81 in1009.5 mb 0.00 in0.0 mm 0.00 in0.0 mm 0.01 in0.3 mm
05:15 AM 36.7°F2.6°C 36.4°F2.4°C 99% 1.6 mph NW2.6 kmh NW 4.5 mph7.2 kmh 29.81 in1009.5 mb 0.01 in0.3 mm 0.04 in1.0 mm 0.02 in0.5 mm
05:30 AM 36.7°F2.6°C 36.4°F2.4°C 99% 0.7 mph NW1.1 kmh NW 3.1 mph5.0 kmh 29.82 in1009.8 mb 0.01 in0.3 mm 0.00 in0.0 mm 0.02 in0.5 mm
05:45 AM 36.3°F2.4°C 36.1°F2.3°C 99% 3.1 mph NW5.0 kmh NW 6.9 mph11.1 kmh 29.83 in1010.2 mb 0.01 in0.3 mm 0.00 in0.0 mm 0.02 in0.5 mm
06:00 AM 35.8°F2.1°C 35.5°F1.9°C 99% 2.2 mph NW3.5 kmh NW 6.0 mph9.7 kmh 29.84 in1010.5 mb 0.02 in0.5 mm 0.01 in0.3 mm 0.04 in1.0 mm
06:15 AM 35.2°F1.8°C 35.0°F1.7°C 99% 1.6 mph NW2.6 kmh NW 4.5 mph7.2 kmh 29.84 in1010.5 mb 0.02 in0.5 mm 0.00 in0.0 mm 0.05 in1.3 mm
06:30 AM 34.9°F1.6°C 34.6°F1.4°C 99% 3.8 mph NW6.1 kmh NW 8.3 mph13.4 kmh 29.87 in1011.5 mb 0.02 in0.5 mm 0.00 in0.0 mm 0.05 in1.3 mm
06:45 AM 34.2°F1.2°C 33.9°F1.1°C 99% 2.2 mph NW3.5 kmh NW 7.6 mph12.2 kmh 29.86 in1011.2 mb 0.02 in0.5 mm 0.00 in0.0 mm 0.05 in1.3 mm
07:00 AM 33.8°F1.0°C 33.6°F0.9°C 99% 3.1 mph NW5.0 kmh NW 7.6 mph12.2 kmh 29.87 in1011.5 mb 0.01 in0.3 mm 0.00 in0.0 mm 0.05 in1.3 mm
07:15 AM 33.4°F0.8°C 33.2°F0.7°C 99% 2.2 mph NW3.5 kmh NW 6.9 mph11.1 kmh 29.87 in1011.5 mb 0.00 in0.0 mm 0.00 in0.0 mm 0.05 in1.3 mm
07:30 AM 33.3°F0.7°C 33.0°F0.6°C 99% 1.6 mph NW2.6 kmh NW 5.4 mph8.7 kmh 29.87 in1011.5 mb 0.00 in0.0 mm 0.00 in0.0 mm 0.05 in1.3 mm
07:45 AM 33.1°F0.6°C 32.8°F0.4°C 99% 0.7 mph NW1.1 kmh NW 3.8 mph6.1 kmh 29.89 in1012.2 mb 0.00 in0.0 mm 0.00 in0.0 mm 0.05 in1.3 mm
08:00 AM 32.7°F0.4°C 32.5°F0.3°C 99% 0.7 mph NW1.1 kmh NW 6.0 mph9.7 kmh 29.89 in1012.2 mb 0.00 in0.0 mm 0.00 in0.0 mm 0.05 in1.3 mm
08:15 AM 32.4°F0.2°C 32.1°F0.1°C 99% 2.2 mph NNW3.5 kmh NNW 5.4 mph8.7 kmh 29.91 in1012.9 mb 0.00 in0.0 mm 0.00 in0.0 mm 0.05 in1.3 mm
08:30 AM 32.2°F0.1°C 31.9°F-0.1°C 99% 0.7 mph NW1.1 kmh NW 4.5 mph7.2 kmh 29.91 in1012.9 mb 0.00 in0.0 mm 0.00 in0.0 mm 0.05 in1.3 mm
08:45 AM 32.2°F0.1°C 31.9°F-0.1°C 99% 1.6 mph NW2.6 kmh NW 3.8 mph6.1 kmh 29.92 in1013.2 mb 0.00 in0.0 mm 0.00 in0.0 mm 0.05 in1.3 mm
09:00 AM 32.4°F0.2°C 32.1°F0.1°C 99% 1.6 mph NW2.6 kmh NW 4.5 mph7.2 kmh 29.93 in1013.5 mb 0.00 in0.0 mm 0.00 in0.0 mm 0.05 in1.3 mm
09:15 AM 32.4°F0.2°C 32.1°F0.1°C 99% 1.6 mph NW2.6 kmh NW 5.4 mph8.7 kmh 29.94 in1013.9 mb 0.00 in0.0 mm 0.00 in0.0 mm 0.05 in1.3 mm
09:30 AM 32.4°F0.2°C 32.1°F0.1°C 99% 1.6 mph NW2.6 kmh NW 6.0 mph9.7 kmh 29.96 in1014.6 mb 0.00 in0.0 mm 0.00 in0.0 mm 0.05 in1.3 mm
09:45 AM 32.4°F0.2°C 32.1°F0.1°C 99% 1.6 mph NW2.6 kmh NW 5.4 mph8.7 kmh 29.97 in1014.9 mb 0.00 in0.0 mm 0.00 in0.0 mm 0.05 in1.3 mm
10:00 AM 32.5°F0.3°C 32.3°F0.2°C 99% 1.6 mph NW2.6 kmh NW 3.8 mph6.1 kmh 29.97 in1014.9 mb 0.00 in0.0 mm 0.00 in0.0 mm 0.05 in1.3 mm
10:15 AM 32.5°F0.3°C 32.3°F0.2°C 99% 1.6 mph NW2.6 kmh NW 6.0 mph9.7 kmh 29.98 in1015.2 mb 0.00 in0.0 mm 0.00 in0.0 mm 0.05 in1.3 mm
10:30 AM 32.9°F0.5°C 32.7°F0.4°C 99% 0.7 mph NW1.1 kmh NW 6.0 mph9.7 kmh 29.99 in1015.6 mb 0.00 in0.0 mm 0.00 in0.0 mm 0.05 in1.3 mm
10:45 AM 32.9°F0.5°C 32.7°F0.4°C 99% 0.7 mph NW1.1 kmh NW 6.0 mph9.7 kmh 30.00 in1015.9 mb 0.00 in0.0 mm 0.00 in0.0 mm 0.05 in1.3 mm
11:00 AM 32.9°F0.5°C 32.7°F0.4°C 99% 1.6 mph NW2.6 kmh NW 8.3 mph13.4 kmh 30.01 in1016.3 mb 0.00 in0.0 mm 0.00 in0.0 mm 0.05 in1.3 mm
11:15 AM 32.9°F0.5°C 32.7°F0.4°C 99% 1.6 mph NW2.6 kmh NW 6.9 mph11.1 kmh 30.01 in1016.3 mb 0.00 in0.0 mm 0.00 in0.0 mm 0.05 in1.3 mm
11:30 AM 32.9°F0.5°C 32.7°F0.4°C 99% 2.2 mph NW3.5 kmh NW 6.0 mph9.7 kmh 30.01 in1016.3 mb 0.00 in0.0 mm 0.00 in0.0 mm 0.05 in1.3 mm
11:45 AM 32.9°F0.5°C 32.7°F0.4°C 99% 0.7 mph NW1.1 kmh NW 6.9 mph11.1 kmh 30.01 in1016.3 mb 0.01 in0.3 mm 0.04 in1.0 mm 0.06 in1.5 mm
12:00 PM 32.7°F0.4°C 32.5°F0.3°C 99% 3.1 mph NW5.0 kmh NW 9.8 mph15.8 kmh 30.03 in1016.9 mb 0.01 in0.3 mm 0.00 in0.0 mm 0.06 in1.5 mm
12:15 PM 32.7°F0.4°C 32.5°F0.3°C 99% 2.2 mph NNW3.5 kmh NNW 7.6 mph12.2 kmh 30.04 in1017.3 mb 0.01 in0.3 mm 0.00 in0.0 mm 0.06 in1.5 mm
12:30 PM 32.7°F0.4°C 32.5°F0.3°C 99% 2.2 mph WNW3.5 kmh WNW 8.3 mph13.4 kmh 30.04 in1017.3 mb 0.01 in0.3 mm 0.00 in0.0 mm 0.06 in1.5 mm
12:45 PM 32.7°F0.4°C 32.5°F0.3°C 99% 1.6 mph NW2.6 kmh NW 8.3 mph13.4 kmh 30.05 in1017.6 mb 0.00 in0.0 mm 0.00 in0.0 mm 0.06 in1.5 mm
01:00 PM 33.1°F0.6°C 32.8°F0.4°C 99% 3.8 mph NW6.1 kmh NW 6.0 mph9.7 kmh 30.05 in1017.6 mb 0.00 in0.0 mm 0.00 in0.0 mm 0.06 in1.5 mm
01:15 PM 33.1°F0.6°C 32.8°F0.4°C 99% 1.6 mph NW2.6 kmh NW 7.6 mph12.2 kmh 30.04 in1017.3 mb 0.00 in0.0 mm 0.00 in0.0 mm 0.06 in1.5 mm
01:30 PM 32.9°F0.5°C 32.7°F0.4°C 99% 0.7 mph NW1.1 kmh NW 5.4 mph8.7 kmh 30.05 in1017.6 mb 0.00 in0.0 mm 0.00 in0.0 mm 0.06 in1.5 mm
01:45 PM 32.7°F0.4°C 32.5°F0.3°C 99% 2.2 mph NW3.5 kmh NW 5.4 mph8.7 kmh 30.05 in1017.6 mb 0.00 in0.0 mm 0.00 in0.0 mm 0.06 in1.5 mm
02:00 PM 32.5°F0.3°C 32.3°F0.2°C 99% 1.6 mph NW2.6 kmh NW 5.4 mph8.7 kmh 30.05 in1017.6 mb 0.00 in0.0 mm 0.00 in0.0 mm 0.06 in1.5 mm
02:15 PM 32.5°F0.3°C 32.3°F0.2°C 99% 2.2 mph NW3.5 kmh NW 6.0 mph9.7 kmh 30.06 in1017.9 mb 0.00 in0.0 mm 0.00 in0.0 mm 0.06 in1.5 mm
02:30 PM 32.4°F0.2°C 32.1°F0.1°C 99% 1.6 mph NW2.6 kmh NW 5.4 mph8.7 kmh 30.07 in1018.3 mb 0.00 in0.0 mm 0.00 in0.0 mm 0.06 in1.5 mm
02:45 PM 32.2°F0.1°C 31.9°F-0.1°C 99% 0.7 mph NW1.1 kmh NW 6.9 mph11.1 kmh 30.08 in1018.6 mb 0.00 in0.0 mm 0.00 in0.0 mm 0.06 in1.5 mm
03:00 PM 32.2°F0.1°C 31.9°F-0.1°C 99% 1.6 mph NW2.6 kmh NW 6.0 mph9.7 kmh 30.09 in1019.0 mb 0.00 in0.0 mm 0.00 in0.0 mm 0.06 in1.5 mm
03:15 PM 32.0°F0.0°C 31.8°F-0.1°C 99% 2.2 mph NW3.5 kmh NW 6.9 mph11.1 kmh 30.10 in1019.3 mb 0.00 in0.0 mm 0.00 in0.0 mm 0.06 in1.5 mm
03:30 PM 31.8°F-0.1°C 31.6°F-0.2°C 99% 2.2 mph NW3.5 kmh NW 7.6 mph12.2 kmh 30.10 in1019.3 mb 0.00 in0.0 mm 0.00 in0.0 mm 0.06 in1.5 mm
03:45 PM 31.5°F-0.3°C 31.2°F-0.4°C 99% 2.2 mph NNW3.5 kmh NNW 9.2 mph14.8 kmh 30.10 in1019.3 mb 0.00 in0.0 mm 0.00 in0.0 mm 0.06 in1.5 mm
04:00 PM 31.3°F-0.4°C 31.0°F-0.6°C 99% 3.1 mph NNW5.0 kmh NNW 6.0 mph9.7 kmh 30.10 in1019.3 mb 0.00 in0.0 mm 0.00 in0.0 mm 0.06 in1.5 mm
04:15 PM 31.1°F-0.5°C 30.9°F-0.6°C 99% 1.6 mph NNW2.6 kmh NNW 7.6 mph12.2 kmh 30.10 in1019.3 mb 0.00 in0.0 mm 0.00 in0.0 mm 0.06 in1.5 mm
04:30 PM 31.1°F-0.5°C 30.9°F-0.6°C 99% 3.1 mph NW5.0 kmh NW 6.9 mph11.1 kmh 30.11 in1019.6 mb 0.00 in0.0 mm 0.00 in0.0 mm 0.06 in1.5 mm
04:45 PM 31.1°F-0.5°C 30.9°F-0.6°C 99% 1.6 mph NW2.6 kmh NW 7.6 mph12.2 kmh 30.11 in1019.6 mb 0.00 in0.0 mm 0.00 in0.0 mm 0.06 in1.5 mm
05:00 PM 31.1°F-0.5°C 30.9°F-0.6°C 99% 3.8 mph NW6.1 kmh NW 10.7 mph17.2 kmh 30.11 in1019.6 mb 0.00 in0.0 mm 0.00 in0.0 mm 0.06 in1.5 mm
05:15 PM 30.9°F-0.6°C 30.7°F-0.7°C 99% 3.8 mph NW6.1 kmh NW 9.8 mph15.8 kmh 30.13 in1020.3 mb 0.00 in0.0 mm 0.00 in0.0 mm 0.06 in1.5 mm
05:30 PM 30.7°F-0.7°C 30.5°F-0.8°C 99% 3.8 mph NNW6.1 kmh NNW 14.5 mph23.3 kmh 30.13 in1020.3 mb 0.00 in0.0 mm 0.00 in0.0 mm 0.06 in1.5 mm
05:45 PM 30.4°F-0.9°C 30.1°F-1.1°C 99% 3.1 mph NNW5.0 kmh NNW 9.2 mph14.8 kmh 30.13 in1020.3 mb 0.00 in0.0 mm 0.00 in0.0 mm 0.06 in1.5 mm
06:00 PM 30.0°F-1.1°C 29.8°F-1.2°C 99% 9.8 mph N15.8 kmh N 15.9 mph25.6 kmh 30.14 in1020.7 mb 0.00 in0.0 mm 0.00 in0.0 mm 0.06 in1.5 mm
06:15 PM 29.8°F-1.2°C 29.6°F-1.3°C 99% 6.0 mph NNW9.7 kmh NNW 15.9 mph25.6 kmh 30.16 in1021.3 mb 0.00 in0.0 mm 0.00 in0.0 mm 0.06 in1.5 mm
06:30 PM 29.8°F-1.2°C 29.6°F-1.3°C 99% 2.2 mph NNW3.5 kmh NNW 7.6 mph12.2 kmh 30.17 in1021.7 mb 0.00 in0.0 mm 0.00 in0.0 mm 0.06 in1.5 mm
06:45 PM 29.7°F-1.3°C 29.4°F-1.4°C 99% 4.5 mph N7.2 kmh N 10.7 mph17.2 kmh 30.18 in1022.0 mb 0.00 in0.0 mm 0.00 in0.0 mm 0.06 in1.5 mm
07:00 PM 29.5°F-1.4°C 29.2°F-1.6°C 99% 6.9 mph N11.1 kmh N 13.0 mph20.9 kmh 30.17 in1021.7 mb 0.00 in0.0 mm 0.00 in0.0 mm 0.06 in1.5 mm
07:15 PM 29.5°F-1.4°C 29.2°F-1.6°C 99% 3.8 mph N6.1 kmh N 12.1 mph19.5 kmh 30.18 in1022.0 mb 0.00 in0.0 mm 0.00 in0.0 mm 0.06 in1.5 mm
07:30 PM 29.5°F-1.4°C 29.2°F-1.6°C 99% 2.2 mph N3.5 kmh N 9.2 mph14.8 kmh 30.18 in1022.0 mb 0.00 in0.0 mm 0.00 in0.0 mm 0.06 in1.5 mm
07:45 PM 29.5°F-1.4°C 29.2°F-1.6°C 99% 5.4 mph N8.7 kmh N 12.1 mph19.5 kmh 30.21 in1023.0 mb 0.00 in0.0 mm 0.00 in0.0 mm 0.06 in1.5 mm
08:00 PM 29.3°F-1.5°C 29.1°F-1.6°C 99% 3.8 mph N6.1 kmh N 10.7 mph17.2 kmh 30.21 in1023.0 mb 0.00 in0.0 mm 0.00 in0.0 mm 0.06 in1.5 mm
08:15 PM 29.3°F-1.5°C 29.1°F-1.6°C 99% 2.2 mph N3.5 kmh N 10.7 mph17.2 kmh 30.23 in1023.7 mb 0.00 in0.0 mm 0.00 in0.0 mm 0.06 in1.5 mm
08:30 PM 29.3°F-1.5°C 29.1°F-1.6°C 99% 3.1 mph N5.0 kmh N 9.8 mph15.8 kmh 30.24 in1024.0 mb 0.00 in0.0 mm 0.00 in0.0 mm 0.06 in1.5 mm
08:45 PM 29.1°F-1.6°C 28.9°F-1.7°C 99% 5.4 mph N8.7 kmh N 17.4 mph28.0 kmh 30.21 in1023.0 mb 0.00 in0.0 mm 0.00 in0.0 mm 0.06 in1.5 mm
09:00 PM 29.1°F-1.6°C 28.9°F-1.7°C 99% 8.3 mph N13.4 kmh N 14.5 mph23.3 kmh 30.22 in1023.4 mb 0.00 in0.0 mm 0.00 in0.0 mm 0.06 in1.5 mm
09:15 PM 28.9°F-1.7°C 28.7°F-1.8°C 99% 4.5 mph N7.2 kmh N 11.4 mph18.3 kmh 30.23 in1023.7 mb 0.00 in0.0 mm 0.00 in0.0 mm 0.06 in1.5 mm
09:30 PM 28.9°F-1.7°C 28.7°F-1.8°C 99% 4.5 mph N7.2 kmh N 15.2 mph24.5 kmh 30.23 in1023.7 mb 0.00 in0.0 mm 0.00 in0.0 mm 0.06 in1.5 mm
09:45 PM 28.8°F-1.8°C 28.5°F-1.9°C 99% 3.8 mph NE6.1 kmh NE 12.1 mph19.5 kmh 30.25 in1024.4 mb 0.00 in0.0 mm 0.00 in0.0 mm 0.06 in1.5 mm
10:00 PM 28.8°F-1.8°C 28.5°F-1.9°C 99% 4.5 mph N7.2 kmh N 12.1 mph19.5 kmh 30.26 in1024.7 mb 0.00 in0.0 mm 0.00 in0.0 mm 0.06 in1.5 mm
10:15 PM 28.8°F-1.8°C 28.5°F-1.9°C 99% 4.5 mph N7.2 kmh N 13.0 mph20.9 kmh 30.26 in1024.7 mb 0.00 in0.0 mm 0.00 in0.0 mm 0.06 in1.5 mm
10:30 PM 28.8°F-1.8°C 28.5°F-1.9°C 99% 5.4 mph N8.7 kmh N 11.4 mph18.3 kmh 30.28 in1025.4 mb 0.00 in0.0 mm 0.00 in0.0 mm 0.06 in1.5 mm
10:45 PM 28.8°F-1.8°C 28.5°F-1.9°C 99% 6.0 mph N9.7 kmh N 10.7 mph17.2 kmh 30.30 in1026.1 mb 0.00 in0.0 mm 0.00 in0.0 mm 0.06 in1.5 mm
11:00 PM 28.9°F-1.7°C 28.7°F-1.8°C 99% 3.1 mph N5.0 kmh N 13.0 mph20.9 kmh 30.31 in1026.4 mb 0.00 in0.0 mm 0.00 in0.0 mm 0.06 in1.5 mm
11:15 PM 28.9°F-1.7°C 28.7°F-1.8°C 99% 3.8 mph N6.1 kmh N 10.7 mph17.2 kmh 30.31 in1026.4 mb 0.00 in0.0 mm 0.00 in0.0 mm 0.06 in1.5 mm
11:30 PM 29.1°F-1.6°C 28.9°F-1.7°C 99% 6.9 mph N11.1 kmh N 11.4 mph18.3 kmh 30.32 in1026.8 mb 0.00 in0.0 mm 0.00 in0.0 mm 0.06 in1.5 mm
11:45 PM 29.1°F-1.6°C 28.9°F-1.7°C 99% 3.8 mph N6.1 kmh N 13.6 mph21.9 kmh 30.33 in1027.1 mb 0.00 in0.0 mm 0.00 in0.0 mm 0.06 in1.5 mm